Airport View

Enter AWOS ICAO identifier for current METAR.

ex. KFNL

KEFT 011245Z AUTO 28010KT 10SM SCT039 07/04 A2995 RMK AO2 T00660040

1 Oct 2020 12:48

Frequency: 118.375

Phone: 608-328-8359

Other Area AWOS: KFEP - KJVL - KC29 - KMRJ

TAF KMSN 011120Z 0112/0212 29007KT P6SM VCSH BKN028 FM011500 32010G18KT P6SM VCSH BKN019 FM012000 33011KT P6SM VCSH BKN045 FM020000 35005KT P6SM BKN045